Time;durP1;ratioP1;P1;durP2;ratioP2;P2;SDS_P1;SDS_P2;PMS_P1;PMS_P2;Temp;Humidity;BMP_temperature;BMP_pressure;BME280_temperature;BME280_humidity;BME280_pressure;Samples;Min_cycle;Max_cycle;Signal;HPM_P1;HPM_P2
2022/07/26 00:07:11;;;;;;;0.60;0.30;;;20.50;99.90;;;;;;6690950;88;20209;-78
2022/07/26 00:17:12;;;;;;;0.37;0.20;;;20.40;99.90;;;;;;6685364;88;20180;-77
2022/07/26 00:27:13;;;;;;;1.17;0.23;;;20.10;99.90;;;;;;6682928;88;20282;-77
2022/07/26 00:37:13;;;;;;;0.68;0.30;;;19.90;99.90;;;;;;6695615;88;20629;-77
2022/07/26 00:47:14;;;;;;;0.85;0.20;;;19.80;99.90;;;;;;6686225;88;20277;-77
2022/07/26 00:57:15;;;;;;;0.40;0.20;;;19.70;99.90;;;;;;6690006;88;20216;-78
2022/07/26 01:07:16;;;;;;;0.30;0.20;;;19.60;99.90;;;;;;6697029;88;20781;-78
2022/07/26 01:17:16;;;;;;;0.32;0.20;;;19.50;99.90;;;;;;6711857;88;20183;-78
2022/07/26 01:27:17;;;;;;;0.30;0.10;;;19.40;99.90;;;;;;6700191;88;20690;-77
2022/07/26 01:37:17;;;;;;;0.40;0.20;;;19.40;99.90;;;;;;6692420;88;20194;-78
2022/07/26 01:47:18;;;;;;;1.20;0.40;;;19.40;99.90;;;;;;6682153;88;20199;-78
2022/07/26 01:57:18;;;;;;;0.70;0.35;;;19.10;99.90;;;;;;6690490;88;20214;-77
2022/07/26 02:07:19;;;;;;;0.45;0.37;;;19.00;99.90;;;;;;6690251;88;20183;-77
2022/07/26 02:17:19;;;;;;;0.50;0.22;;;18.90;99.90;;;;;;6693414;88;20334;-77
2022/07/26 02:27:20;;;;;;;0.50;0.20;;;18.80;99.90;;;;;;6680531;88;20187;-78
2022/07/26 02:37:20;;;;;;;0.93;0.43;;;18.70;99.90;;;;;;6688573;88;20787;-77
2022/07/26 02:47:21;;;;;;;0.60;0.25;;;18.80;99.90;;;;;;6681068;88;20238;-78
2022/07/26 02:57:21;;;;;;;0.80;0.30;;;18.80;99.90;;;;;;6681397;88;20343;-78
2022/07/26 03:07:22;;;;;;;0.52;0.30;;;18.80;99.90;;;;;;6688699;88;20204;-77
2022/07/26 03:17:23;;;;;;;0.57;0.30;;;18.90;99.90;;;;;;6677653;89;20184;-77
2022/07/26 03:27:23;;;;;;;0.67;0.30;;;18.70;99.90;;;;;;6685058;88;20232;-77
2022/07/26 03:37:24;;;;;;;1.15;0.28;;;18.80;99.90;;;;;;6687411;88;20208;-78
2022/07/26 03:47:24;;;;;;;0.65;0.30;;;18.70;99.90;;;;;;6697249;88;20763;-77
2022/07/26 03:57:25;;;;;;;2.72;0.43;;;18.70;99.90;;;;;;6692212;88;20271;-78
2022/07/26 04:07:25;;;;;;;0.95;0.40;;;18.70;99.90;;;;;;6695335;88;20197;-77
2022/07/26 04:17:26;;;;;;;1.20;0.37;;;18.70;99.90;;;;;;6687758;88;20709;-78
2022/07/26 04:27:27;;;;;;;0.50;0.20;;;18.60;99.90;;;;;;6695499;88;20703;-78
2022/07/26 04:37:27;;;;;;;0.85;0.37;;;18.70;99.90;;;;;;6691535;88;20219;-78
2022/07/26 04:47:28;;;;;;;0.70;0.30;;;18.80;99.90;;;;;;6687832;88;20637;-77
2022/07/26 04:57:28;;;;;;;0.80;0.40;;;18.70;99.90;;;;;;6683024;88;21073;-78
2022/07/26 05:07:42;;;;;;;1.00;0.40;;;18.80;99.90;;;;;;6692809;88;20191;-77
2022/07/26 05:17:42;;;;;;;1.02;0.40;;;19.00;99.90;;;;;;6691377;88;20706;-78
2022/07/26 05:27:43;;;;;;;0.65;0.40;;;19.10;99.90;;;;;;6690558;88;20280;-78
2022/07/26 05:37:43;;;;;;;1.15;0.70;;;19.20;99.90;;;;;;6678958;89;20237;-77
2022/07/26 05:47:44;;;;;;;2.00;0.50;;;19.10;99.90;;;;;;6693881;88;20219;-77
2022/07/26 05:57:46;;;;;;;0.60;0.32;;;19.30;99.90;;;;;;6688091;88;20198;-78
2022/07/26 06:07:46;;;;;;;1.20;0.80;;;19.40;99.90;;;;;;6703695;88;20182;-77
2022/07/26 06:17:47;;;;;;;0.93;0.60;;;20.00;99.90;;;;;;6692815;88;20295;-77
2022/07/26 06:27:47;;;;;;;1.30;0.60;;;20.50;99.90;;;;;;6678735;88;20199;-78
2022/07/26 06:37:48;;;;;;;1.02;0.65;;;20.20;99.90;;;;;;6703370;88;20661;-77
2022/07/26 06:47:49;;;;;;;1.10;0.60;;;20.40;99.90;;;;;;6674638;89;20215;-78
2022/07/26 06:57:49;;;;;;;3.50;0.80;;;20.40;99.90;;;;;;6676629;89;20199;-78
2022/07/26 07:07:50;;;;;;;1.10;0.60;;;20.40;99.90;;;;;;6678290;89;20214;-78
2022/07/26 07:17:51;;;;;;;1.47;0.80;;;20.30;99.90;;;;;;6687816;88;20235;-78
2022/07/26 07:27:51;;;;;;;1.58;0.70;;;20.30;99.90;;;;;;6689101;88;20186;-78
2022/07/26 07:37:52;;;;;;;2.50;0.80;;;20.70;99.90;;;;;;6695748;88;20337;-77
2022/07/26 07:47:52;;;;;;;1.43;0.70;;;20.40;99.90;;;;;;6692211;88;20222;-76
2022/07/26 07:57:53;;;;;;;1.23;0.70;;;20.70;99.90;;;;;;6706479;88;20244;-76
2022/07/26 08:07:54;;;;;;;3.35;1.42;;;20.90;99.90;;;;;;6703046;88;20194;-76
2022/07/26 08:17:54;;;;;;;1.20;0.80;;;21.30;99.90;;;;;;6695012;88;20202;-76
2022/07/26 08:27:55;;;;;;;1.58;1.12;;;22.10;99.90;;;;;;6692164;88;20202;-76
2022/07/26 08:37:56;;;;;;;1.37;0.75;;;22.50;99.90;;;;;;6688693;88;20266;-76
2022/07/26 08:47:58;;;;;;;1.30;0.90;;;23.90;99.90;;;;;;6688907;88;20193;-76
2022/07/26 08:58:01;;;;;;;3.28;1.08;;;23.50;99.90;;;;;;6680336;88;20196;-76
2022/07/26 09:08:26;;;;;;;2.65;0.88;;;24.00;99.90;;;;;;6691204;88;20238;-76
2022/07/26 09:18:28;;;;;;;2.03;1.10;;;22.80;99.90;;;;;;6687993;88;20175;-76
2022/07/26 09:28:30;;;;;;;1.92;0.88;;;22.80;99.90;;;;;;6677260;88;20708;-76
2022/07/26 09:38:42;;;;;;;2.00;1.00;;;23.60;99.90;;;;;;6695662;88;20216;-76
2022/07/26 09:48:43;;;;;;;1.73;1.10;;;25.00;99.90;;;;;;6683027;88;20241;-76
2022/07/26 09:58:43;;;;;;;1.67;1.08;;;25.70;99.90;;;;;;6690131;88;20209;-76
2022/07/26 10:08:44;;;;;;;2.05;1.30;;;25.50;99.90;;;;;;6682733;88;20925;-76
2022/07/26 10:18:46;;;;;;;2.30;1.27;;;25.10;99.90;;;;;;6682095;88;20214;-77
2022/07/26 10:28:46;;;;;;;2.08;1.25;;;24.20;99.90;;;;;;6683295;88;20641;-76
2022/07/26 10:39:08;;;;;;;3.77;1.30;;;23.20;99.90;;;;;;6686073;88;20210;-76
2022/07/26 10:49:17;;;;;;;3.47;1.65;;;22.60;99.90;;;;;;6682878;88;20952;-76
2022/07/26 10:59:31;;;;;;;3.05;1.60;;;22.50;99.90;;;;;;6680491;88;20177;-76
2022/07/26 11:09:34;;;;;;;1.73;0.97;;;23.30;99.90;;;;;;6679715;88;20203;-77
2022/07/26 11:19:39;;;;;;;1.52;0.90;;;23.60;99.90;;;;;;6691663;88;20201;-76
2022/07/26 11:29:39;;;;;;;1.95;0.80;;;23.00;99.90;;;;;;6687769;88;20210;-77
2022/07/26 11:39:40;;;;;;;2.58;1.17;;;23.60;99.90;;;;;;6693013;88;20221;-77
2022/07/26 11:49:41;;;;;;;1.23;0.70;;;23.70;99.90;;;;;;6678745;89;20183;-79
2022/07/26 11:59:44;;;;;;;1.23;0.70;;;24.90;98.80;;;;;;6681717;88;20751;-77
2022/07/26 12:09:48;;;;;;;;;;;26.60;96.70;;;;;;6678863;88;20706;-78
2022/07/26 12:19:49;;;;;;;1.30;0.95;;;28.00;90.60;;;;;;6695400;88;20072;-77
2022/07/26 12:30:13;;;;;;;1.30;0.95;;;27.30;90.70;;;;;;6692138;88;20700;-79
2022/07/26 12:40:38;;;;;;;1.00;0.60;;;24.70;97.30;;;;;;6689688;88;20228;-76
2022/07/26 12:50:38;;;;;;;1.40;0.95;;;23.70;97.10;;;;;;6698942;88;20279;-76
2022/07/26 13:00:39;;;;;;;1.35;0.98;;;23.70;99.90;;;;;;6680691;88;20216;-77
2022/07/26 13:10:41;;;;;;;1.40;0.70;;;24.00;99.90;;;;;;6689286;88;20199;-77
2022/07/26 13:20:41;;;;;;;1.08;0.62;;;24.40;98.10;;;;;;6681523;88;20193;-77
2022/07/26 13:30:42;;;;;;;1.15;0.70;;;25.30;97.60;;;;;;6681279;88;20279;-77
2022/07/26 13:40:42;;;;;;;1.20;0.80;;;27.20;94.20;;;;;;6686856;88;20255;-77
2022/07/26 13:50:43;;;;;;;1.33;0.70;;;28.20;91.30;;;;;;6688966;88;20545;-77
2022/07/26 14:00:43;;;;;;;1.33;0.82;;;27.90;88.80;;;;;;6688174;78;20218;-79
2022/07/26 14:10:44;;;;;;;0.80;0.55;;;28.90;86.60;;;;;;6674177;89;20202;-82
2022/07/26 14:20:45;;;;;;;1.10;0.65;;;27.50;87.60;;;;;;6674278;89;20353;-80
2022/07/26 14:30:46;;;;;;;1.75;0.70;;;28.00;88.30;;;;;;6666730;89;20577;-80
2022/07/26 14:40:46;;;;;;;1.07;0.63;;;28.00;88.00;;;;;;6667289;89;20727;-80
2022/07/26 14:50:47;;;;;;;1.10;0.60;;;28.40;87.60;;;;;;6666448;89;20711;-78
2022/07/26 15:00:50;;;;;;;1.30;0.70;;;27.50;88.60;;;;;;6666654;89;20216;-78
2022/07/26 15:10:51;;;;;;;1.10;0.70;;;26.50;89.80;;;;;;6666848;89;20584;-78
2022/07/26 15:20:52;;;;;;;1.75;0.60;;;26.90;89.70;;;;;;6673954;89;20217;-79
2022/07/26 15:30:52;;;;;;;2.20;0.80;;;26.50;90.10;;;;;;6675411;89;20243;-77
2022/07/26 15:40:53;;;;;;;1.30;0.60;;;24.90;93.60;;;;;;6667162;89;20191;-79
2022/07/26 15:50:53;;;;;;;0.93;0.50;;;25.40;95.20;;;;;;6670263;89;20687;-79
2022/07/26 16:00:55;;;;;;;0.80;0.40;;;25.80;96.00;;;;;;6669836;89;20266;-79
2022/07/26 16:10:55;;;;;;;0.70;0.40;;;26.50;93.70;;;;;;6671591;89;20266;-78
2022/07/26 16:20:56;;;;;;;0.70;0.40;;;26.70;94.00;;;;;;6670034;89;20630;-77
2022/07/26 16:30:56;;;;;;;0.88;0.50;;;26.30;94.50;;;;;;6670586;89;20188;-79
2022/07/26 16:40:57;;;;;;;1.00;0.47;;;25.70;95.20;;;;;;6674748;89;20706;-80
2022/07/26 16:50:58;;;;;;;1.50;0.90;;;24.70;95.70;;;;;;6680987;89;20261;-80
2022/07/26 17:00:59;;;;;;;0.80;0.50;;;24.20;97.90;;;;;;6665093;89;20218;-80
2022/07/26 17:10:59;;;;;;;0.70;0.40;;;23.80;98.80;;;;;;6677097;89;20199;-80
2022/07/26 17:21:01;;;;;;;1.83;0.70;;;23.60;99.70;;;;;;6687638;88;20710;-80
2022/07/26 17:31:01;;;;;;;1.10;0.50;;;23.50;99.90;;;;;;6679590;88;20527;-79
2022/07/26 17:41:02;;;;;;;0.73;0.40;;;23.30;99.90;;;;;;6663869;89;20216;-80
2022/07/26 17:51:03;;;;;;;0.73;0.35;;;23.10;99.90;;;;;;6661705;89;20204;-80
2022/07/26 18:01:03;;;;;;;0.70;0.30;;;22.90;99.90;;;;;;6679435;89;20196;-80
2022/07/26 18:11:06;;;;;;;1.10;0.40;;;22.80;99.90;;;;;;6671748;89;20203;-80
2022/07/26 18:21:06;;;;;;;0.77;0.40;;;22.70;99.90;;;;;;6692793;88;20494;-79
2022/07/26 18:31:07;;;;;;;0.90;0.50;;;22.40;99.90;;;;;;6682646;89;20230;-80
2022/07/26 18:41:08;;;;;;;1.00;0.40;;;22.30;99.90;;;;;;6694779;88;20203;-80
2022/07/26 18:51:09;;;;;;;0.80;0.30;;;22.40;99.90;;;;;;6700585;88;20210;-79
2022/07/26 19:01:10;;;;;;;0.80;0.30;;;22.30;99.90;;;;;;6701410;88;20709;-82
2022/07/26 19:11:10;;;;;;;1.00;0.40;;;22.10;99.90;;;;;;6702335;89;20498;-80
2022/07/26 19:21:11;;;;;;;1.02;0.50;;;22.00;99.90;;;;;;6701097;88;20538;-82
2022/07/26 19:31:11;;;;;;;0.70;0.40;;;21.80;99.90;;;;;;6695037;88;20711;-80
2022/07/26 19:41:12;;;;;;;0.95;0.50;;;21.60;99.90;;;;;;6705500;88;20197;-80
2022/07/26 19:51:12;;;;;;;0.70;0.40;;;21.50;99.90;;;;;;6696372;89;20223;-82
2022/07/26 20:01:13;;;;;;;0.68;0.35;;;21.40;99.90;;;;;;6702510;88;20238;-81
2022/07/26 20:11:15;;;;;;;0.70;0.30;;;21.10;99.90;;;;;;6694131;88;20631;-81
2022/07/26 20:21:15;;;;;;;0.93;0.43;;;20.80;99.90;;;;;;6699149;88;20160;-80
2022/07/26 20:31:16;;;;;;;0.75;0.47;;;20.30;99.90;;;;;;6693159;89;20203;-81
2022/07/26 20:41:16;;;;;;;0.37;0.20;;;19.60;99.90;;;;;;6683831;89;20574;-80
2022/07/26 20:51:17;;;;;;;0.63;0.20;;;19.50;99.90;;;;;;6685268;89;20201;-81
2022/07/26 21:01:18;;;;;;;2.83;0.60;;;19.40;99.90;;;;;;6689742;89;20187;-80
2022/07/26 21:11:18;;;;;;;0.60;0.30;;;19.20;99.90;;;;;;6688856;89;20168;-80
2022/07/26 21:21:20;;;;;;;0.85;0.37;;;19.50;99.90;;;;;;6701622;88;20229;-80
2022/07/26 21:31:20;;;;;;;0.90;0.35;;;19.80;99.90;;;;;;6684234;88;20190;-82
2022/07/26 21:41:21;;;;;;;0.95;0.40;;;20.00;99.90;;;;;;6691506;88;20175;-81
2022/07/26 21:51:21;;;;;;;0.50;0.30;;;20.00;99.90;;;;;;6676949;89;20199;-81
2022/07/26 22:01:22;;;;;;;0.68;0.30;;;20.00;99.90;;;;;;6685982;89;20236;-81
2022/07/26 22:11:23;;;;;;;1.83;0.40;;;19.90;99.90;;;;;;6690080;88;20215;-81
2022/07/26 22:21:23;;;;;;;0.62;0.30;;;19.90;99.90;;;;;;6691729;89;20225;-80
2022/07/26 22:31:25;;;;;;;0.80;0.50;;;20.00;99.90;;;;;;6683274;89;20660;-80
2022/07/26 22:41:25;;;;;;;1.73;0.62;;;19.90;99.90;;;;;;6682363;77;20647;-77
2022/07/26 22:51:26;;;;;;;0.90;0.43;;;19.80;99.90;;;;;;6655050;89;20205;-78
2022/07/26 23:01:26;;;;;;;0.60;0.30;;;19.80;99.90;;;;;;6655020;89;20185;-76
2022/07/26 23:11:27;;;;;;;0.80;0.30;;;19.80;99.90;;;;;;6653548;89;20322;-76
2022/07/26 23:21:27;;;;;;;1.80;0.35;;;19.60;99.90;;;;;;6663251;89;20210;-77
2022/07/26 23:31:28;;;;;;;0.40;0.20;;;19.50;99.90;;;;;;6655363;89;20747;-77
2022/07/26 23:41:28;;;;;;;1.27;0.50;;;19.40;99.90;;;;;;6651336;89;20249;-77
2022/07/26 23:51:29;;;;;;;0.30;0.20;;;19.40;99.90;;;;;;6657996;89;20213;-77
